Dixie, Georgia
Current Conditions -  °F | °C
As of 12:55 PM on Sunday 21 Dec 2014 (Local Time) from KTVI Reporting Station
Moderate Rain Moderate Rain  
Wind Chill: 55°   Ceiling: 600
Heat Index: 55°   Visibility: 3mi
Dew Point: 55°   Wind: 7mph
Humidity: 100%   Direction: 80°E
Pressure: 30.09"   Gusts: NA
Location:  30.79°N, 83.66°W
Report Text: KTVI 211755Z AUTO 08006KT 3SM RA OVC006 13/13 A3009 RMK AO2
Loading
Personal Weather Stations






























Interactive Weather Map New forecast layout! Learn more

10-Day Weather Forecast

Advertisements
Track Severe Weather on mobile